Southern Ontario METAR Reports

CYSN - St.Catharines
Updated: 08/08/2020 9:00pm
NOT Current
Partly cloudy
Partly cloudy
 Wind from SW
Wind: SW 13 km/h
Temperature: 22°C
Dew Point: 14°C
Humidity: 61%
Barometer: 1019 hPa
Clouds: Partly cloudy
Visibility: 24 km
Cloud details: Few Clouds 2134 m
Partly cloudy 7620 m
2020/08/09 01:00 CYSN 090100Z 22007KT 15SM FEW070 SCT250 22/14 A3009 RMK AC1CI3 LAST STFD OBS/NEXT 091100Z SLP191 DENSITY ALT 1100FT
CYHM - Hamilton
Updated: 08/09/2020 1:00am
Mostly cloudy
Mostly cloudy
 Wind from W
Wind: W 9 km/h
Temperature: 17°C
Dew Point: 15°C
Humidity: 88%
Barometer: 1020.3 hPa
Clouds: Mostly cloudy
Visibility: 24 km
Cloud details: Mostly cloudy 3353 m
2020/08/09 05:00 CYHM 090500Z 26005KT 15SM BKN110 17/15 A3013 RMK AC5 SLP203 DENSITY ALT 1000FT
 
CYYZ - Toronto
Updated: 08/09/2020 1:00am
Mostly cloudy
Mostly cloudy
 Wind from WSW
Wind: WSW 15 km/h
Temperature: 21°C
Dew Point: 16°C
Humidity: 73%
Barometer: 1019.3 hPa
Clouds: Mostly cloudy
Visibility: 24 km
Cloud details: Mostly cloudy 3658 m
2020/08/09 05:00 CYYZ 090500Z 25008KT 15SM BKN120 21/16 A3010 RMK AC5 SLP192 DENSITY ALT 1300FT
CYKF - Waterloo
Updated: 08/09/2020 1:00am
Mostly cloudy
Mostly cloudy
 Wind from SW
Wind: SW 13 km/h
Temperature: 20°C
Dew Point: 16°C
Humidity: 78%
Barometer: 1020.3 hPa
Clouds: Mostly cloudy
Visibility: 14 km
Cloud details: Mostly cloudy 3353 m
2020/08/09 05:00 CYKF 090500Z AUTO 23007KT 9SM BKN110 20/16 A3013 RMK SLP201 DENSITY ALT 1500FT
 
CYXU - London
Updated: 08/09/2020 1:00am
Few Clouds
Few Clouds
 Wind from SSW
Wind: SSW 7 km/h
Temperature: 19°C
Dew Point: 16°C
Humidity: 83%
Barometer: 1020.7 hPa
Clouds: Few Clouds
Visibility: 24 km
Cloud details: Few Clouds 3353 m
Few Clouds 4877 m
2020/08/09 05:00 CYXU 090500Z 21004KT 15SM FEW110 FEW160 19/16 A3014 RMK AC1AC1 AC TR AC TR SLP203 DENSITY ALT 1400FT
CYQG - Windsor
Updated: 08/09/2020 1:00am
Partly cloudy
Partly cloudy
 Wind from SSW
Wind: SSW 15 km/h
Temperature: 21°C
Dew Point: 18°C
Humidity: 83%
Barometer: 1020.3 hPa
Clouds: Partly cloudy
Visibility: 14 km
Cloud details: Partly cloudy 4572 m
2020/08/09 05:00 CYQG 090500Z AUTO 21008KT 9SM SCT150 21/18 A3013 RMK SLP202 DENSITY ALT 1100FT
 
CYZR - Sarnia
Updated: 08/09/2020 1:00am
Mostly cloudy
Mostly cloudy
 Wind from SSW
Wind: SSW 13 km/h
Temperature: 19°C
Dew Point: 16°C
Humidity: 83%
Barometer: 1019.6 hPa
Clouds: Mostly cloudy
Visibility: 14 km
Cloud details: Partly cloudy 3048 m
Mostly cloudy 3658 m
Mostly cloudy 4877 m
2020/08/09 05:00 CYZR 090500Z AUTO 20007KT 9SM SCT100 BKN120 BKN160 19/16 A3011 RMK SLP194 DENSITY ALT 1000FT
CYVV - Wiarton
Updated: 08/09/2020 1:23am
Light rain, Showers, Mostly cloudy
Light rain, Showers, Mostly cloudy
 Wind from SSW
Wind: SSW 20 km/h
Temperature: 21°C
Dew Point: 15°C
Humidity: 69%
Barometer: 1016.9 hPa
Summary: Light rain, Showers
Clouds: Mostly cloudy
Visibility: 24 km
Cloud details: Mostly cloudy 1676 m
2020/08/09 05:23 CYVV 090523Z 21011KT 15SM -SHRA BKN055 21/15 A3003 RMK SC7 CVCTV CLD EMBD SLP169 DENSITY ALT 1500FT
 
CYPQ - Peterborough
Updated: 08/09/2020 1:00am
Mostly cloudy
Mostly cloudy
 Wind from W
Wind: W 4 km/h
Temperature: 15°C
Dew Point: 14°C
Humidity: 94%
Barometer: 1019 hPa
Clouds: Mostly cloudy
Visibility: 14 km
Cloud details: Mostly cloudy 4267 m
2020/08/09 05:00 CYPQ 090500Z AUTO 27002KT 9SM BKN140 15/14 A3009 RMK SLP191
CYTR - Trenton
Updated: 08/09/2020 1:00am
Clear
Clear
 Wind from WSW
Wind: WSW 9 km/h
Temperature: 21°C
Dew Point: 18°C
Humidity: 83%
Barometer: 1019 hPa
Clouds: Clear
Visibility: 14 km
2020/08/09 05:00 CYTR 090500Z AUTO 25005KT 9SM CLR 21/18 A3009 RMK SLP188